createdAt,value
2019-04-06T00:00:46.761Z,84.90
2019-04-06T00:03:14.991Z,85.10
2019-04-06T00:05:43.226Z,85.60
2019-04-06T00:08:11.464Z,85.40
2019-04-06T00:10:39.689Z,85.50
2019-04-06T00:13:07.915Z,85.50
2019-04-06T00:15:36.161Z,85.50
2019-04-06T00:18:04.392Z,85.70
2019-04-06T00:20:32.679Z,85.90
2019-04-06T00:23:00.894Z,86.20
2019-04-06T00:25:29.138Z,86.10
2019-04-06T00:27:57.372Z,85.40
2019-04-06T00:30:25.678Z,85.40
2019-04-06T00:32:58.359Z,85.50
2019-04-06T00:35:26.620Z,85.60
2019-04-06T00:37:54.837Z,86.20
2019-04-06T00:40:23.117Z,86.30
2019-04-06T00:42:51.397Z,85.70
2019-04-06T00:45:19.723Z,85.70
2019-04-06T00:47:47.939Z,85.80
2019-04-06T00:50:16.184Z,85.80
2019-04-06T00:52:44.445Z,85.80
2019-04-06T00:55:12.683Z,85.40
2019-04-06T00:57:40.989Z,85.90
2019-04-06T01:00:09.321Z,86.30
2019-04-06T01:02:37.572Z,86.70
2019-04-06T01:05:06.374Z,87.30
2019-04-06T01:07:34.772Z,87.60
2019-04-06T01:10:03.110Z,87.50
2019-04-06T01:12:31.411Z,87.50
2019-04-06T01:14:59.652Z,87.70
2019-04-06T01:17:28.230Z,88.50
2019-04-06T01:19:56.441Z,88.40
2019-04-06T01:22:24.684Z,88.50
2019-04-06T01:24:52.911Z,88.30
2019-04-06T01:27:21.153Z,88.70
2019-04-06T01:29:49.384Z,88.50
2019-04-06T01:32:17.632Z,88.50
2019-04-06T01:34:45.872Z,88.20
2019-04-06T01:37:14.113Z,87.90
2019-04-06T01:39:42.335Z,88.10
2019-04-06T01:42:10.578Z,87.90
2019-04-06T01:44:38.817Z,87.80
2019-04-06T01:47:07.084Z,87.50
2019-04-06T01:49:35.369Z,87.30
2019-04-06T01:52:04.168Z,88.00
2019-04-06T01:54:32.400Z,88.10
2019-04-06T01:57:00.640Z,87.80
2019-04-06T01:59:28.869Z,88.50
2019-04-06T02:02:17.227Z,88.70
2019-04-06T02:04:45.452Z,88.50
2019-04-06T02:07:13.694Z,88.70
2019-04-06T02:09:41.916Z,88.60
2019-04-06T02:12:10.157Z,88.60
2019-04-06T02:14:38.392Z,88.50
2019-04-06T02:17:06.681Z,87.80
2019-04-06T02:19:34.928Z,87.60
2019-04-06T02:22:03.160Z,87.90
2019-04-06T02:24:31.397Z,88.00
2019-04-06T02:26:59.636Z,88.10
2019-04-06T02:29:27.884Z,88.70
2019-04-06T02:31:57.829Z,87.70
2019-04-06T02:34:33.796Z,87.50
2019-04-06T02:37:06.486Z,87.30
2019-04-06T02:39:36.410Z,87.40
2019-04-06T02:42:22.700Z,87.20
2019-04-06T02:44:50.908Z,86.30
2019-04-06T02:47:19.154Z,86.50
2019-04-06T02:49:47.383Z,87.00
2019-04-06T02:52:15.666Z,88.00
2019-04-06T02:54:44.048Z,87.60
2019-04-06T02:57:12.392Z,87.20
2019-04-06T02:59:40.682Z,87.30
2019-04-06T03:02:08.920Z,87.70
2019-04-06T03:04:37.182Z,88.20
2019-04-06T03:07:05.412Z,88.40
2019-04-06T03:09:33.639Z,88.70
2019-04-06T03:12:02.022Z,88.70
2019-04-06T03:14:30.388Z,88.70
2019-04-06T03:16:58.620Z,88.90
2019-04-06T03:19:26.862Z,89.30
2019-04-06T03:21:55.096Z,89.30
2019-04-06T03:24:23.332Z,89.00
2019-04-06T03:27:01.083Z,88.80
2019-04-06T03:29:21.505Z,88.70
2019-04-06T03:31:49.771Z,88.40
2019-04-06T03:34:21.197Z,88.20
2019-04-06T03:36:47.973Z,88.10
2019-04-06T03:39:16.221Z,88.00
2019-04-06T03:41:44.451Z,88.00
2019-04-06T03:44:12.676Z,88.00
2019-04-06T03:46:41.226Z,88.10
2019-04-06T03:49:09.602Z,87.90
2019-04-06T03:51:37.908Z,87.50
2019-04-06T03:54:06.163Z,87.90
2019-04-06T03:56:34.443Z,88.10
2019-04-06T03:59:02.688Z,88.20
2019-04-06T04:01:30.914Z,88.90
2019-04-06T04:03:59.158Z,88.50
2019-04-06T04:06:27.449Z,88.60
2019-04-06T04:08:55.726Z,88.30
2019-04-06T04:11:24.028Z,88.10
2019-04-06T04:13:52.314Z,87.90
2019-04-06T04:16:20.738Z,88.20
2019-04-06T04:18:49.054Z,88.20
2019-04-06T04:21:17.322Z,88.10
2019-04-06T04:23:45.564Z,88.20
2019-04-06T04:26:13.866Z,88.20
2019-04-06T04:28:42.173Z,87.80
2019-04-06T04:31:10.405Z,87.70
2019-04-06T04:33:38.652Z,88.10
2019-04-06T04:36:06.925Z,87.90
2019-04-06T04:38:35.210Z,87.80
2019-04-06T04:41:04.174Z,88.10
2019-04-06T04:43:32.507Z,88.40
2019-04-06T04:46:00.815Z,87.80
2019-04-06T04:48:29.144Z,87.90
2019-04-06T04:50:57.387Z,87.90
2019-04-06T04:53:25.613Z,87.70
2019-04-06T04:55:53.916Z,87.90
2019-04-06T04:58:22.217Z,87.30
2019-04-06T05:00:50.457Z,87.50
2019-04-06T05:03:19.320Z,87.30
2019-04-06T05:05:47.723Z,86.90
2019-04-06T05:08:16.009Z,87.00
2019-04-06T05:10:44.385Z,87.20
2019-04-06T05:13:12.671Z,87.50
2019-04-06T05:15:49.324Z,87.30
2019-04-06T05:18:17.566Z,86.60
2019-04-06T05:20:45.796Z,86.90
2019-04-06T05:23:14.020Z,86.90
2019-04-06T05:25:42.256Z,86.60
2019-04-06T05:28:10.488Z,85.70
2019-04-06T05:30:40.700Z,85.80
2019-04-06T05:33:08.888Z,85.80
2019-04-06T05:35:37.245Z,86.60
2019-04-06T05:38:05.549Z,86.70
2019-04-06T05:40:33.786Z,87.00
2019-04-06T05:43:02.007Z,87.00
2019-04-06T05:45:30.336Z,87.50
2019-04-06T05:47:58.555Z,87.20
2019-04-06T05:50:26.804Z,87.00
2019-04-06T05:52:55.111Z,86.80
2019-04-06T05:55:24.480Z,86.70
2019-04-06T05:58:02.939Z,87.00
2019-04-06T06:00:23.099Z,86.90
2019-04-06T06:02:51.359Z,86.60
2019-04-06T06:05:19.716Z,86.20
2019-04-06T06:07:48.090Z,85.80
2019-04-06T06:10:16.338Z,86.00
2019-04-06T06:12:44.560Z,86.10
2019-04-06T06:15:12.791Z,85.80
2019-04-06T06:17:41.036Z,86.10
2019-04-06T06:20:09.329Z,85.50
2019-04-06T06:22:37.568Z,85.40
2019-04-06T06:25:06.842Z,85.60
2019-04-06T06:27:35.138Z,85.80
2019-04-06T06:30:05.368Z,85.20
2019-04-06T06:32:33.674Z,85.00
2019-04-06T06:35:01.910Z,84.40
2019-04-06T06:37:30.173Z,84.10
2019-04-06T06:39:58.392Z,84.00
2019-04-06T06:44:54.645Z,82.40
2019-04-06T06:47:22.972Z,82.70
2019-04-06T06:49:51.252Z,82.20
2019-04-06T06:52:19.970Z,81.10
2019-04-06T06:54:48.192Z,81.10
2019-04-06T06:57:18.081Z,80.80
2019-04-06T06:59:46.304Z,81.50
2019-04-06T07:02:14.722Z,80.20
2019-04-06T07:04:42.968Z,80.60
2019-04-06T07:07:11.249Z,80.30
2019-04-06T07:09:39.529Z,80.30
2019-04-06T07:12:07.779Z,80.20
2019-04-06T07:14:36.027Z,80.50
2019-04-06T07:17:04.323Z,80.50
2019-04-06T07:19:32.612Z,80.10
2019-04-06T07:22:00.853Z,80.30
2019-04-06T07:24:29.084Z,80.00
2019-04-06T07:26:57.548Z,80.30
2019-04-06T07:29:25.890Z,79.90
2019-04-06T07:31:54.163Z,79.30
2019-04-06T07:34:22.388Z,79.40
2019-04-06T07:36:50.654Z,79.10
2019-04-06T07:39:18.908Z,79.00
2019-04-06T07:41:47.241Z,78.60
2019-04-06T07:44:15.619Z,78.80
2019-04-06T07:46:43.947Z,79.20
2019-04-06T07:49:12.270Z,78.90
2019-04-06T07:51:40.538Z,78.70
2019-04-06T07:54:08.815Z,78.60
2019-04-06T07:56:37.056Z,78.00
2019-04-06T07:59:05.362Z,78.00
2019-04-06T08:01:33.696Z,77.40
2019-04-06T08:04:01.993Z,77.50
2019-04-06T08:06:30.234Z,77.40
2019-04-06T08:08:58.553Z,76.90
2019-04-06T08:11:26.869Z,76.30
2019-04-06T08:13:55.108Z,76.00
2019-04-06T08:16:23.354Z,75.50
2019-04-06T08:18:51.605Z,75.30
2019-04-06T08:21:19.815Z,74.80
2019-04-06T08:23:48.052Z,74.60
2019-04-06T08:26:16.342Z,73.70
2019-04-06T08:28:44.753Z,71.70
2019-04-06T08:31:13.033Z,71.40
2019-04-06T08:33:41.275Z,71.80
2019-04-06T08:36:09.529Z,70.00
2019-04-06T08:38:37.762Z,69.50
2019-04-06T08:41:06.010Z,69.50
2019-04-06T08:43:34.238Z,69.60
2019-04-06T08:46:02.479Z,69.20
2019-04-06T08:48:30.711Z,67.50
2019-04-06T08:50:59.193Z,67.50
2019-04-06T08:53:27.550Z,67.40
2019-04-06T08:55:55.805Z,67.20
2019-04-06T08:58:24.048Z,68.10
2019-04-06T09:00:52.431Z,67.60
2019-04-06T09:03:20.692Z,67.20
2019-04-06T09:05:48.940Z,67.20
2019-04-06T09:08:17.173Z,66.10
2019-04-06T09:10:45.422Z,67.60
2019-04-06T09:13:13.648Z,67.50
2019-04-06T09:15:41.901Z,68.30
2019-04-06T09:18:10.198Z,68.40
2019-04-06T09:20:38.458Z,68.60
2019-04-06T14:52:41.628Z,37.90
2019-04-06T14:55:14.390Z,37.80
2019-04-06T14:58:01.235Z,38.60
2019-04-06T15:00:37.293Z,38.00
2019-04-06T15:03:07.272Z,37.50
2019-04-06T15:05:54.028Z,37.80
2019-04-06T15:08:26.938Z,37.50
2019-04-06T15:11:09.101Z,36.00
2019-04-06T15:13:54.206Z,36.70
2019-04-06T15:16:33.386Z,37.90
2019-04-06T15:19:03.674Z,36.80
2019-04-06T15:21:50.507Z,38.10
2019-04-06T15:24:20.402Z,36.80
2019-04-06T15:27:06.951Z,36.20
2019-04-06T15:29:40.858Z,36.90
2019-04-06T15:32:22.293Z,36.10
2019-04-06T15:35:01.141Z,35.80
2019-04-06T15:37:31.015Z,36.60
2019-04-06T15:40:06.873Z,35.90
2019-04-06T15:42:36.742Z,37.30
2019-04-06T15:45:22.616Z,37.50
2019-04-06T15:47:55.471Z,37.80
2019-04-06T15:50:28.104Z,38.10
2019-04-06T15:52:57.981Z,38.00
2019-04-06T15:55:42.861Z,39.10
2019-04-06T15:58:31.065Z,39.20
2019-04-06T16:01:00.949Z,40.80
2019-04-06T16:03:46.144Z,41.20
2019-04-06T16:06:31.203Z,42.40
2019-04-06T16:09:17.249Z,43.80
2019-04-06T16:11:53.525Z,44.80
2019-04-06T16:14:23.726Z,44.20
2019-04-06T16:16:56.901Z,44.90
2019-04-06T16:19:26.809Z,45.90
2019-04-06T16:21:59.650Z,46.50
2019-04-06T16:24:32.304Z,47.20
2019-04-06T16:27:03.822Z,47.00
2019-04-06T16:29:34.086Z,48.20
2019-04-06T16:32:11.498Z,48.10
2019-04-06T16:34:41.596Z,47.70
2019-04-06T16:37:15.000Z,47.90
2019-04-06T16:39:47.748Z,48.00
2019-04-06T16:42:23.402Z,47.50
2019-04-06T16:45:05.284Z,47.10
2019-04-06T16:47:35.153Z,46.80
2019-04-06T16:50:05.033Z,47.40
2019-04-06T16:52:53.161Z,47.20
2019-04-06T16:55:35.652Z,47.80
2019-04-06T16:58:22.116Z,47.90
2019-04-06T17:00:58.141Z,47.60
2019-04-06T17:03:28.022Z,48.70
2019-04-06T17:05:58.285Z,48.40
2019-04-06T17:08:28.249Z,48.80
2019-04-06T17:11:01.113Z,49.70
2019-04-06T17:13:34.385Z,50.40
2019-04-06T17:16:13.577Z,51.00
2019-04-06T17:19:00.077Z,51.60
2019-04-06T17:21:33.157Z,52.50
2019-04-06T17:24:09.366Z,53.50
2019-04-06T17:26:39.436Z,54.40
2019-04-06T17:29:25.907Z,55.00
2019-04-06T17:32:11.114Z,55.10
2019-04-06T17:34:57.751Z,56.00
2019-04-06T17:37:31.151Z,55.50
2019-04-06T17:40:10.136Z,56.20
2019-04-06T17:42:56.468Z,56.20
2019-04-06T17:45:32.629Z,56.50
2019-04-06T17:48:02.673Z,57.10
2019-04-06T17:50:32.654Z,57.40
2019-04-06T17:53:05.473Z,58.50
2019-04-06T17:55:50.520Z,58.10
2019-04-06T17:58:20.772Z,58.30
2019-04-06T18:00:50.737Z,58.70
2019-04-06T18:03:23.619Z,58.80
2019-04-06T18:06:05.991Z,58.80
2019-04-06T18:08:41.823Z,59.10
2019-04-06T18:11:18.212Z,59.30
2019-04-06T18:13:48.605Z,59.20
2019-04-06T18:16:17.968Z,59.60
2019-04-06T18:18:46.264Z,59.70
2019-04-06T18:21:14.512Z,59.80
2019-04-06T18:23:42.743Z,60.00
2019-04-06T18:26:11.068Z,60.00
2019-04-06T18:28:39.662Z,60.20
2019-04-06T18:31:21.597Z,60.10
2019-04-06T18:33:49.902Z,60.60
2019-04-06T18:36:18.180Z,61.00
2019-04-06T18:38:48.064Z,61.10
2019-04-06T18:41:16.287Z,61.20
2019-04-06T18:43:44.545Z,61.40
2019-04-06T18:46:15.144Z,61.60
2019-04-06T18:48:42.750Z,62.20
2019-04-06T18:51:11.252Z,61.70
2019-04-06T18:53:39.514Z,62.20
2019-04-06T18:56:07.837Z,62.20
2019-04-06T18:58:36.452Z,62.40
2019-04-06T19:01:05.459Z,62.50
2019-04-06T19:03:33.865Z,62.40
2019-04-06T19:06:02.508Z,62.30
2019-04-06T19:08:30.909Z,62.50
2019-04-06T19:10:59.187Z,62.70
2019-04-06T19:13:27.509Z,62.90
2019-04-06T19:15:55.854Z,62.80
2019-04-06T19:18:24.149Z,63.20
2019-04-06T19:20:52.707Z,63.20
2019-04-06T19:23:21.105Z,63.10
2019-04-06T19:25:49.371Z,63.10
2019-04-06T19:28:17.671Z,62.80
2019-04-06T19:30:46.287Z,63.00
2019-04-06T19:33:23.729Z,63.10
2019-04-06T19:35:44.834Z,63.50
2019-04-06T19:38:13.173Z,63.40
2019-04-06T19:40:41.479Z,63.60
2019-04-06T19:43:10.249Z,63.90
2019-04-06T19:45:39.011Z,64.10
2019-04-06T19:48:07.901Z,64.40
2019-04-06T19:50:37.074Z,64.20
2019-04-06T19:53:06.099Z,64.20
2019-04-06T19:55:35.674Z,64.20
2019-04-06T19:58:05.167Z,64.40
2019-04-06T20:00:34.770Z,64.50
2019-04-06T20:03:04.519Z,64.50
2019-04-06T20:05:37.539Z,64.70
2019-04-06T20:08:07.193Z,64.60
2019-04-06T20:10:37.422Z,65.90
2019-04-06T20:13:07.314Z,64.80
2019-04-06T20:15:36.767Z,64.70
2019-04-06T20:18:05.542Z,64.80
2019-04-06T20:20:34.430Z,65.10
2019-04-06T20:23:03.066Z,65.00
2019-04-06T20:25:31.939Z,65.30
2019-04-06T20:28:00.573Z,65.40
2019-04-06T20:30:29.195Z,65.50
2019-04-06T20:32:57.441Z,65.30
2019-04-06T20:35:25.669Z,65.50
2019-04-06T20:37:54.405Z,66.50
2019-04-06T20:40:23.302Z,65.80
2019-04-06T20:42:51.682Z,66.30
2019-04-06T20:45:20.422Z,66.20
2019-04-06T20:47:48.982Z,66.00
2019-04-06T20:50:17.996Z,66.20
2019-04-06T20:52:46.398Z,66.70
2019-04-06T20:55:14.652Z,66.80
2019-04-06T20:57:42.904Z,66.50
2019-04-06T21:00:11.160Z,66.60
2019-04-06T21:02:39.643Z,66.70
2019-04-06T21:05:07.972Z,66.70
2019-04-06T21:07:36.938Z,66.90
2019-04-06T21:10:08.689Z,67.10
2019-04-06T21:12:37.196Z,67.10
2019-04-06T21:15:17.710Z,67.10
2019-04-06T21:17:37.128Z,67.10
2019-04-06T21:20:06.510Z,67.30
2019-04-06T21:22:35.185Z,67.40
2019-04-06T21:25:03.702Z,67.50
2019-04-06T21:27:32.073Z,67.80
2019-04-06T21:30:00.708Z,67.80
2019-04-06T21:32:29.240Z,67.60
2019-04-06T21:34:58.666Z,67.70
2019-04-06T21:37:27.053Z,67.60
2019-04-06T21:39:55.297Z,67.60
2019-04-06T21:42:23.529Z,67.70
2019-04-06T21:44:51.861Z,67.70
2019-04-06T21:47:20.190Z,67.90
2019-04-06T21:49:48.962Z,68.10
2019-04-06T21:52:17.236Z,67.80
2019-04-06T21:54:45.531Z,67.80
2019-04-06T21:57:14.180Z,67.90
2019-04-06T21:59:42.535Z,67.70
2019-04-06T22:02:10.774Z,67.70
2019-04-06T22:04:39.115Z,67.90
2019-04-06T22:07:07.548Z,68.20
2019-04-06T22:09:35.770Z,68.20
2019-04-06T22:12:04.001Z,67.70
2019-04-06T22:14:32.623Z,67.90
2019-04-06T22:17:01.592Z,67.40
2019-04-06T22:19:30.352Z,67.60
2019-04-06T22:21:58.748Z,67.80
2019-04-06T22:24:26.985Z,67.80
2019-04-06T22:26:55.215Z,67.50
2019-04-06T22:29:23.859Z,67.70
2019-04-06T22:31:52.118Z,67.70
2019-04-06T22:34:20.353Z,67.80
2019-04-06T22:39:16.801Z,67.20
2019-04-06T22:41:45.033Z,67.90
2019-04-06T22:44:13.264Z,68.00
2019-04-06T22:46:41.848Z,68.10
2019-04-06T22:49:10.152Z,68.20
2019-04-06T22:51:38.954Z,68.20
2019-04-06T22:54:07.989Z,68.40
2019-04-06T22:56:36.418Z,68.40
2019-04-06T22:59:04.666Z,68.40
2019-04-06T23:01:34.645Z,68.40
2019-04-06T23:04:04.644Z,68.70
2019-04-06T23:06:34.509Z,68.70
2019-04-06T23:09:03.234Z,68.90
2019-04-06T23:11:31.648Z,69.30
2019-04-06T23:13:59.905Z,69.50
2019-04-06T23:16:28.638Z,69.50
2019-04-06T23:18:57.177Z,69.50
2019-04-06T23:21:25.900Z,69.60
2019-04-06T23:23:54.225Z,70.20
2019-04-06T23:26:22.455Z,70.20
2019-04-06T23:28:50.668Z,70.20
2019-04-06T23:31:18.901Z,70.50
2019-04-06T23:33:47.221Z,70.50
2019-04-06T23:36:15.537Z,70.50
2019-04-06T23:38:44.250Z,70.80
2019-04-06T23:41:12.594Z,71.20
2019-04-06T23:43:40.788Z,71.40
2019-04-06T23:46:09.021Z,71.50
2019-04-06T23:48:37.272Z,71.90
2019-04-06T23:51:05.553Z,71.80
2019-04-06T23:53:34.378Z,71.90
2019-04-06T23:56:02.722Z,71.80
2019-04-06T23:58:31.396Z,72.10
